createdAt,value
2024-04-04T00:02:02.079Z,99882.02
2024-04-04T00:07:04.809Z,99879.10
2024-04-04T00:12:07.560Z,99878.08
2024-04-04T00:17:10.274Z,99881.50
2024-04-04T00:22:13.361Z,99886.81
2024-04-04T00:27:17.246Z,99885.09
2024-04-04T00:32:20.417Z,99881.49
2024-04-04T00:37:23.130Z,99885.79
2024-04-04T00:42:25.706Z,99891.97
2024-04-04T00:47:28.442Z,99893.34
2024-04-04T00:52:31.256Z,99894.19
2024-04-04T00:57:35.227Z,99890.91
2024-04-04T01:02:38.413Z,99888.33
2024-04-04T01:07:41.378Z,99885.05
2024-04-04T01:12:44.003Z,99880.05
2024-04-04T01:17:46.676Z,99883.31
2024-04-04T01:22:50.379Z,99886.91
2024-04-04T01:27:54.447Z,99882.28
2024-04-04T01:32:57.089Z,99883.67
2024-04-04T01:37:59.903Z,99886.59
2024-04-04T01:43:03.811Z,99885.05
2024-04-04T01:48:06.931Z,99875.60
2024-04-04T01:53:09.560Z,99875.42
2024-04-04T01:58:12.186Z,99878.69
2024-04-04T02:03:15.224Z,99885.23
2024-04-04T02:08:17.941Z,99879.06
2024-04-04T02:13:20.958Z,99875.30
2024-04-04T02:18:24.677Z,99879.77
2024-04-04T02:23:29.115Z,99883.35
2024-04-04T02:28:31.816Z,99882.48
2024-04-04T02:33:34.510Z,99882.50
2024-04-04T02:38:37.544Z,99875.98
2024-04-04T02:43:40.528Z,99868.08
2024-04-04T02:48:44.409Z,99872.88
2024-04-04T02:53:47.051Z,99873.71
2024-04-04T02:58:50.029Z,99865.66
2024-04-04T03:03:52.721Z,99861.89
2024-04-04T03:08:55.663Z,99854.64
2024-04-04T03:13:58.541Z,99854.80
2024-04-04T03:19:01.227Z,99857.05
2024-04-04T03:24:03.971Z,99864.27
2024-04-04T03:29:06.620Z,99870.79
2024-04-04T03:34:09.304Z,99871.13
2024-04-04T03:39:12.065Z,99867.83
2024-04-04T03:44:14.804Z,99865.10
2024-04-04T03:49:17.445Z,99858.69
2024-04-04T03:54:20.089Z,99863.79
2024-04-04T03:59:24.691Z,99870.96
2024-04-04T04:04:27.341Z,99872.44
2024-04-04T04:09:30.023Z,99873.38
2024-04-04T04:14:33.308Z,99875.77
2024-04-04T04:19:35.988Z,99874.73
2024-04-04T04:24:38.880Z,99879.70
2024-04-04T04:29:41.707Z,99881.05
2024-04-04T04:34:44.372Z,99885.31
2024-04-04T04:39:47.333Z,99884.09
2024-04-04T04:44:49.942Z,99888.69
2024-04-04T04:49:53.435Z,99891.42
2024-04-04T04:54:56.198Z,99896.59
2024-04-04T04:59:59.353Z,99894.34
2024-04-04T05:05:16.445Z,99902.84
2024-04-04T05:10:19.025Z,99895.27
2024-04-04T05:15:21.705Z,99891.08
2024-04-04T05:20:24.331Z,99891.54
2024-04-04T05:25:28.331Z,99895.58
2024-04-04T05:30:32.605Z,99894.70
2024-04-04T05:35:35.340Z,99891.61
2024-04-04T05:40:38.027Z,99887.64
2024-04-04T05:45:40.793Z,99889.75
2024-04-04T05:50:43.817Z,99889.02
2024-04-04T05:55:47.976Z,99885.00
2024-04-04T06:00:50.742Z,99882.76
2024-04-04T06:05:53.400Z,99886.14
2024-04-04T06:10:56.170Z,99884.70
2024-04-04T06:16:04.794Z,99888.86
2024-04-04T06:21:07.659Z,99888.92
2024-04-04T06:26:10.285Z,99886.94
2024-04-04T06:31:13.169Z,99892.70
2024-04-04T06:36:17.567Z,99895.14
2024-04-04T06:41:20.273Z,99894.13
2024-04-04T06:46:23.007Z,99890.61
2024-04-04T06:51:28.806Z,99887.95
2024-04-04T06:56:31.687Z,99883.65
2024-04-04T07:01:35.942Z,99882.23
2024-04-04T07:06:39.385Z,99882.91
2024-04-04T07:11:42.791Z,99884.23
2024-04-04T07:16:45.583Z,99880.07
2024-04-04T07:21:50.294Z,99877.48
2024-04-04T07:26:53.193Z,99868.53
2024-04-04T07:31:56.698Z,99872.23
2024-04-04T07:36:59.574Z,99872.41
2024-04-04T07:42:02.803Z,99876.69
2024-04-04T07:47:06.108Z,99874.78
2024-04-04T07:52:09.129Z,99875.11
2024-04-04T07:57:13.283Z,99870.94
2024-04-04T08:02:17.533Z,99873.97
2024-04-04T08:07:20.675Z,99869.46
2024-04-04T08:12:23.488Z,99865.67
2024-04-04T08:17:26.254Z,99863.77
2024-04-04T08:22:28.957Z,99864.41
2024-04-04T08:27:31.587Z,99860.09
2024-04-04T08:32:36.471Z,99857.91
2024-04-04T08:37:40.190Z,99857.56
2024-04-04T08:42:44.010Z,99861.10
2024-04-04T08:47:46.935Z,99852.46
2024-04-04T08:52:49.652Z,99849.23
2024-04-04T08:57:52.279Z,99846.88
2024-04-04T09:02:54.994Z,99844.02
2024-04-04T09:07:58.987Z,99848.16
2024-04-04T09:13:02.602Z,99847.55
2024-04-04T09:18:06.229Z,99843.63
2024-04-04T09:23:11.221Z,99838.88
2024-04-04T09:28:15.408Z,99838.19
2024-04-04T09:33:21.645Z,99837.91
2024-04-04T09:38:27.327Z,99843.60
2024-04-04T09:43:30.040Z,99835.25
2024-04-04T09:48:37.058Z,99834.81
2024-04-04T09:53:41.543Z,99829.77
2024-04-04T09:58:47.587Z,99825.84
2024-04-04T10:04:00.846Z,99822.55
2024-04-04T10:09:16.889Z,99822.20
2024-04-04T10:14:21.449Z,99820.33
2024-04-04T10:19:25.466Z,99819.54
2024-04-04T10:24:28.124Z,99817.33
2024-04-04T10:29:36.858Z,99808.36
2024-04-04T10:34:42.969Z,99800.98
2024-04-04T10:39:51.264Z,99797.00
2024-04-04T10:44:55.368Z,99799.05
2024-04-04T10:49:58.550Z,99792.80
2024-04-04T10:55:05.454Z,99793.40
2024-04-04T11:00:14.815Z,99802.38
2024-04-04T11:05:19.706Z,99802.00
2024-04-04T11:10:24.291Z,99797.73
2024-04-04T11:15:27.264Z,99784.73
2024-04-04T11:20:30.014Z,99776.43
2024-04-04T11:25:32.864Z,99777.17
2024-04-04T11:30:35.662Z,99773.15
2024-04-04T11:35:38.680Z,99780.11
2024-04-04T11:40:41.980Z,99776.77
2024-04-04T11:45:45.199Z,99773.50
2024-04-04T11:50:48.008Z,99768.21
2024-04-04T11:55:53.323Z,99757.85
2024-04-04T12:00:56.076Z,99762.02
2024-04-04T12:06:00.105Z,99763.72
2024-04-04T12:11:05.799Z,99756.70
2024-04-04T12:16:09.785Z,99751.11
2024-04-04T12:21:18.828Z,99742.42
2024-04-04T12:26:21.479Z,99736.60
2024-04-04T12:31:24.182Z,99736.02
2024-04-04T12:36:27.011Z,99744.38
2024-04-04T12:41:29.922Z,99735.41
2024-04-04T12:46:37.038Z,99726.88
2024-04-04T12:51:40.198Z,99722.63
2024-04-04T12:56:43.179Z,99724.29
2024-04-04T13:01:47.498Z,99724.81
2024-04-04T13:06:50.448Z,99720.64
2024-04-04T13:11:53.210Z,99716.63
2024-04-04T13:16:57.430Z,99711.58
2024-04-04T13:22:00.400Z,99714.50
2024-04-04T13:27:04.455Z,99709.73
2024-04-04T13:32:07.444Z,99714.14
2024-04-04T13:37:10.206Z,99709.13
2024-04-04T13:42:12.957Z,99700.08
2024-04-04T13:47:17.215Z,99694.54
2024-04-04T13:52:20.687Z,99689.11
2024-04-04T13:57:23.422Z,99683.61
2024-04-04T14:02:26.101Z,99670.29
2024-04-04T14:07:29.359Z,99662.33
2024-04-04T14:12:32.480Z,99669.17
2024-04-04T14:17:38.442Z,99675.84
2024-04-04T14:22:41.206Z,99675.54
2024-04-04T14:27:44.092Z,99670.30
2024-04-04T14:32:47.038Z,99667.35
2024-04-04T14:37:51.730Z,99651.54
2024-04-04T14:42:54.526Z,99656.89
2024-04-04T14:47:57.569Z,99658.79
2024-04-04T14:53:00.270Z,99656.34
2024-04-04T14:58:09.214Z,99645.52
2024-04-04T15:03:13.103Z,99643.98
2024-04-04T15:08:16.106Z,99643.91
2024-04-04T15:13:19.107Z,99636.15
2024-04-04T15:18:22.022Z,99624.01
2024-04-04T15:23:24.998Z,99621.91
2024-04-04T15:28:27.715Z,99617.58
2024-04-04T15:33:31.240Z,99619.35
2024-04-04T15:38:34.070Z,99629.52
2024-04-04T15:43:37.187Z,99612.63
2024-04-04T15:48:42.845Z,99610.83
2024-04-04T15:53:45.510Z,99618.42
2024-04-04T15:58:48.111Z,99621.19
2024-04-04T16:03:50.812Z,99605.06
2024-04-04T16:08:54.472Z,99599.77
2024-04-04T16:13:57.564Z,99589.70
2024-04-04T16:19:00.263Z,99592.04
2024-04-04T16:24:04.156Z,99591.81
2024-04-04T16:29:07.863Z,99584.66
2024-04-04T16:34:11.163Z,99584.05
2024-04-04T16:39:14.610Z,99579.10
2024-04-04T16:44:17.699Z,99578.27
2024-04-04T16:49:20.419Z,99581.18
2024-04-04T16:54:23.199Z,99583.79
2024-04-04T16:59:25.888Z,99586.25
2024-04-04T17:04:28.561Z,99579.39
2024-04-04T17:09:31.225Z,99574.08
2024-04-04T17:14:34.661Z,99574.42
2024-04-04T17:19:38.600Z,99576.69
2024-04-04T17:24:41.682Z,99569.08
2024-04-04T17:29:46.371Z,99566.35
2024-04-04T17:34:49.048Z,99563.47
2024-04-04T17:39:51.699Z,99560.02
2024-04-04T17:44:54.382Z,99552.06
2024-04-04T17:49:57.596Z,99548.44
2024-04-04T17:55:00.982Z,99545.55
2024-04-04T18:00:05.244Z,99535.17
2024-04-04T18:05:08.130Z,99529.11
2024-04-04T18:10:10.894Z,99524.73
2024-04-04T18:20:18.372Z,99523.08
2024-04-04T18:25:21.568Z,99526.16
2024-04-04T18:30:24.282Z,99527.55
2024-04-04T18:35:27.128Z,99537.43
2024-04-04T18:40:29.870Z,99532.53
2024-04-04T18:45:33.076Z,99523.61
2024-04-04T18:50:36.547Z,99524.67
2024-04-04T18:55:39.297Z,99521.33
2024-04-04T19:00:45.997Z,99517.71
2024-04-04T19:05:55.512Z,99513.59
2024-04-04T19:10:58.856Z,99506.95
2024-04-04T19:16:03.808Z,99505.06
2024-04-04T19:21:09.728Z,99504.36
2024-04-04T19:26:12.385Z,99497.35
2024-04-04T19:31:15.053Z,99497.98
2024-04-04T19:36:18.476Z,99489.55
2024-04-04T19:41:21.089Z,99485.47
2024-04-04T19:46:23.783Z,99485.26
2024-04-04T19:51:26.427Z,99482.98
2024-04-04T19:56:29.031Z,99479.04
2024-04-04T20:01:32.263Z,99477.97
2024-04-04T20:06:34.896Z,99465.44
2024-04-04T20:11:38.154Z,99461.75
2024-04-04T20:16:42.115Z,99459.77
2024-04-04T20:21:45.283Z,99450.00
2024-04-04T20:26:47.959Z,99442.83
2024-04-04T20:31:50.780Z,99433.58
2024-04-04T20:36:53.409Z,99415.98
2024-04-04T20:41:56.189Z,99415.27
2024-04-04T20:46:58.845Z,99412.44
2024-04-04T20:52:02.242Z,99405.66
2024-04-04T20:57:05.197Z,99408.08
2024-04-04T21:02:08.743Z,99398.36
2024-04-04T21:07:11.368Z,99387.48
2024-04-04T21:12:14.010Z,99381.94
2024-04-04T21:17:17.181Z,99378.52
2024-04-04T21:22:19.817Z,99376.31
2024-04-04T21:27:22.772Z,99369.27
2024-04-04T21:32:25.378Z,99357.11
2024-04-04T21:37:28.010Z,99347.31
2024-04-04T21:42:32.654Z,99342.16
2024-04-04T21:47:35.676Z,99336.69
2024-04-04T21:52:38.539Z,99332.73
2024-04-04T21:57:41.255Z,99327.86
2024-04-04T22:02:44.459Z,99325.58
2024-04-04T22:07:47.107Z,99316.95
2024-04-04T22:12:49.828Z,99309.08
2024-04-04T22:17:53.404Z,99311.45
2024-04-04T22:22:56.000Z,99305.81
2024-04-04T22:27:59.230Z,99303.21
2024-04-04T22:33:03.007Z,99303.20
2024-04-04T22:38:06.080Z,99303.11
2024-04-04T22:43:09.283Z,99297.36
2024-04-04T22:48:15.554Z,99294.89
2024-04-04T22:53:18.485Z,99291.19
2024-04-04T22:58:24.135Z,99292.46
2024-04-04T23:03:27.809Z,99294.75
2024-04-04T23:08:30.522Z,99300.44
2024-04-04T23:13:34.630Z,99301.84
2024-04-04T23:18:37.377Z,99305.11
2024-04-04T23:23:40.643Z,99308.40
2024-04-04T23:28:45.346Z,99312.02
2024-04-04T23:33:48.040Z,99313.13
2024-04-04T23:38:51.104Z,99317.89
2024-04-04T23:43:53.759Z,99319.36
2024-04-04T23:48:56.363Z,99324.42
2024-04-04T23:53:59.469Z,99330.23
2024-04-04T23:59:02.333Z,99334.48
